x

Halibut Bank (46146) Wave Buoy

2:00 - Tue 24th Jan 2017 All times are PST. -8 hours from GMT.

  • Sig Wave height 0.3ft
  • Peak Period 6s
  • Wind
    4mph, 7mph gusts
  • Sea Temp 45°f
  • Ar Temp 42°f
  • Sea Pressure 1020.8mb
  • Halibut Bank
  • Halibut Bank

More Historic Weather Station data

Upgrade to MSW Pro to gain access to the past 30 days of data for over 8000 Wavebouys and Weather Stations around the globe.

Join Pro

Comparision Forecast

View Surf forecast
   
Ter 01/24 2:00 0.3ft 6s 4 7 mph 1020.8mb 45f 42f
1:00 0.3ft 6s 7 9 mph 1020.6mb 44f 41f
12:00 0.7ft 2s 7 9 mph 1020.9mb 44f 41f
10:00 0.3ft 6s 9
mph
1020.5mb 43f 40f
9:00 0.3ft 6s 7 9 mph 1019.9mb 43f 40f
8:00 0.3ft 6s 7
mph
1019.4mb 44f 40f
7:00 0.3ft 2s 2 4 mph 1018.9mb 43f 40f
6:00 0.3ft 2s 4
mph
1018.6mb 43f 39f
5:00 0.3ft 2s 2
mph
1018.4mb 43f 40f
4:00 0.3ft 2s 4 7 mph 1018mb 42f 40f
3:00 0.3ft 2s 2
mph
1017.5mb 42f 40f
2:00 0.3ft 2s  -  mph 1017.3mb 42f 40f
1:00 0.3ft 3s  -  2 mph 1017mb 42f 40f
12:00 0.3ft 3s 2 4 mph 1016.6mb 43f 40f
Seg 01/23 11:00 0.3ft 3s 4
mph
1016.3mb 43f 41f
10:00 0.3ft 3s 7
mph
1015.6mb 43f 41f
9:00 0.7ft 6s 7 9 mph 1015.2mb 43f 42f
8:00 0.7ft 3s 4 7 mph 1014.7mb 43f 42f
7:00 1ft 3s 4 7 mph 1014mb 44f 44f
6:00 1.6ft 3s 13
mph
1013.2mb 43f 44f
5:00 1.6ft 3s 13 16 mph 1012.8mb 43f 44f
4:00 1.6ft 4s 13 16 mph 1012.2mb 43f 44f
3:00 2ft 4s 16 18 mph 1011.6mb 43f 44f
2:00 2ft 4s 16 18 mph 1011.2mb 43f 44f
1:00 1.3ft 3s 13 16 mph 1011.1mb 43f 43f
12:00 1ft 3s 13 16 mph 1011.1mb 43f 42f
11:00 0.7ft 3s 13 16 mph 1010.9mb 43f 42f
10:00 0.7ft 3s 11 13 mph 1010.6mb 43f 41f
9:00 0.7ft 3s 9 11 mph 1010mb 43f 40f
8:00 0.7ft 2s 11
mph
1009.1mb 42f 40f
7:00 0.7ft 2s 11 13 mph 1008.4mb 43f 41f
6:00 1ft 2s 11 13 mph 1007.5mb 43f 41f
5:00 0.7ft 2s 11 13 mph 1006.8mb 43f 41f
4:00 1ft 3s 9 11 mph 1006.1mb 43f 42f
3:00 0.7ft 3s 9 11 mph 1005.5mb 43f 42f
2:00 1ft 3s 4 7 mph 1005mb 43f 43f
1:00 1ft 3s 7 11 mph 1004.4mb 43f 43f
12:00 1ft 3s 2 4 mph 1003.9mb 43f 43f
Dom 01/22 11:00 1ft 3s 4 9 mph 1003.6mb 43f 43f
10:00 1ft 2s 9 11 mph 1003.3mb 43f 43f
9:00 1ft 2s 9 11 mph 1002.9mb 43f 44f
8:00 1ft 2s 9 11 mph 1002.4mb 43f 43f
7:00 1.3ft 2s 9 11 mph 1002.2mb 43f 43f
6:00 1.3ft 3s 13 16 mph 1001.7mb 43f 44f
5:00 1.6ft 4s 16 18 mph 1001.5mb 43f 44f
4:00 1.6ft 3s 18 22 mph 1001mb 43f 43f
3:00 1.3ft 2s 18 20 mph 1000.4mb 43f 43f
2:00 1.3ft 3s 13 16 mph 1000.2mb 43f 42f
1:00 0.7ft 2s 16 20 mph 1000mb 43f 42f
12:00 0.7ft 3s 11 13 mph 999.7mb 43f 44f
11:00 0.7ft 3s 7 11 mph 999mb 43f 43f
10:00 0.7ft 3s 7 9 mph 998.1mb 43f 43f
9:00 1ft 3s 9 11 mph 997.2mb 43f 43f
8:00 1ft 3s 9
mph
996.4mb 43f 43f
7:00 1ft 3s 2 4 mph 996.4mb 43f 44f
6:00 1.3ft 3s 13 18 mph 997.1mb 43f 44f
5:00 1.3ft 3s 13
mph
998.7mb 43f 44f
4:00 1.3ft 3s 13 20 mph 999.7mb 43f 45f
3:00 1.6ft 3s 13 16 mph 1000.3mb 44f 44f
2:00 1.6ft 3s 18 22 mph 1000.7mb 44f 45f
1:00 1ft 2s 18 20 mph 1001.5mb 43f 46f
12:00 1.3ft 3s 13 22 mph 1001.5mb 43f 45f
Sáb 01/21 11:00 1.3ft 3s 16 20 mph 1001.1mb 44f 45f
10:00 1.3ft 3s 18
mph
1000.7mb 44f 45f
9:00 0.7ft 3s 13 18 mph 1000.7mb 44f 45f
8:00 0.7ft 3s 11 13 mph 999.9mb 43f 44f
7:00 1ft 3s 9
mph
999.3mb 43f 46f
6:00 1ft 3s 9 11 mph 998.4mb 43f 46f
5:00 1ft 3s 11 13 mph 997.8mb 43f 45f
4:00 1ft 3s 9
mph
997.3mb 43f 45f
3:00 0.7ft 3s 9 13 mph 996.7mb 43f 45f
2:00 1ft 3s 9 11 mph 996.1mb 43f 44f
1:00 1.3ft 3s 9 13 mph 995.6mb 44f 46f
12:00 1.3ft 3s 11 13 mph 995mb 43f 47f
11:00 1ft 3s 9 13 mph 994.7mb 43f 45f
10:00 1ft 3s 9 11 mph 994.2mb 43f 45f
9:00 1ft 3s 9 11 mph 993.4mb 43f 45f
8:00 1.3ft 3s 13 18 mph 992.6mb 44f 44f
7:00 1ft 3s 13 16 mph 992.1mb 44f 45f
6:00 1ft 3s 13 16 mph 991.6mb 44f 44f
5:00 0.7ft 2s 11 13 mph 991.5mb 44f 44f
4:00 0.7ft 2s 11 13 mph 991.3mb 45f 43f
3:00 0.3ft 2s 9 13 mph 990.9mb 45f 44f
2:00 0.3ft 2s 9 11 mph 990.3mb 45f 45f
1:00 0.3ft 3s 9 13 mph 989.9mb 45f 45f
12:00 0.3ft 7s  -  mph 989.5mb 45f 44f